• Join FlightAware (Why Join?)
  • Login
  • US Flag 
10:19AM EDT


 

Airport Tracker/Info


-or-


 

Live Flight TrackerFlight Track Log ✈ ASQ4892 ✈ 01-May-2013 ✈ KXNA - KMEM

Flight Track Log - Related Links

Times and Time Zones

All times are in EDT time to prevent confusion due to time zone crossing. See the ASQ4892 flight status page for this flight to view local times or setup timezone preferences in your user account.

Time Position Orientation Groundspeed Altitude Reporting Facility
EDT Latitude Longitude Course Direction KTS MPH feet Rate Location/Type
12:52PM 36.0814 -94.1811 102° East 279 321 9,500  Level Memphis Center
12:53PM 36.0844 -94.0811 88° East 257 296 11,800 1,800 Climbing Memphis Center
12:54PM 36.0889 -93.9939 86° East 271 312 13,200 1,500 Climbing Memphis Center
12:55PM 36.0925 -93.8733 88° East 299 344 14,900 1,620 Climbing Memphis Center
12:56PM 36.1760 -93.7724 102° East  Level FlightAware Approximate
12:57PM 36.1610 -93.6823 102° East  Level FlightAware Approximate
12:57PM 36.0694 -93.7812 102° East  Level Estimated
12:57PM 36.1092 -93.6378 102° East 338 389 18,100  Level Memphis Center
12:58PM 36.1459 -93.5922 102° East  Level FlightAware Approximate
12:58PM 36.1189 -93.5122 84° East 351 404 19,200  Level Memphis Center
12:59PM 36.1156 -93.3889 92° East 356 410 20,300 1,080 Climbing Memphis Center
01:00PM 36.0917 -93.2594 103° East 370 426 21,400 1,080 Climbing Memphis Center
01:01PM 36.0694 -93.1328 102° East 370 426 22,500 1,080 Climbing Memphis Center
01:02PM 36.0497 -92.9883 100° East 377 434 23,600 840 Climbing Memphis Center
01:03PM 36.0253 -92.8567 103° East 377 434 24,200 600 Climbing Memphis Center
01:04PM 36.0008 -92.7200 102° East 390 449 24,800 360 Climbing Memphis Center
01:05PM 35.9761 -92.5886 103° East 395 455 25,000 60 Climbing Memphis Center
01:06PM 35.9511 -92.4597 103° East 395 455 25,000  Level Memphis Center
01:07PM 35.9283 -92.3258 102° East 400 460 25,000  Level Memphis Center
01:08PM 35.9033 -92.1944 103° East 395 455 25,000 -480 Level Memphis Center
01:09PM 35.8739 -92.0581 105° East 400 460 24,100 -540 Descending Memphis Center
01:10PM 35.8567 -91.9372 100° East 400 460 24,000 -60 Descending Memphis Center
01:11PM 35.8314 -91.8036 103° East 395 455 24,000  Level Memphis Center
01:12PM 35.7911 -91.6725 111° Southeast 400 460 24,000  Level Memphis Center
01:13PM 35.7422 -91.5464 116° Southeast 410 472 24,000 -420 Level Memphis Center
01:14PM 35.6914 -91.4025 113° Southeast 410 472 23,200 -1,440 Descending Memphis Center
01:15PM 35.6547 -91.3025 114° Southeast 384 442 21,200 -2,100 Descending Memphis Center
01:16PM 35.6094 -91.1819 115° Southeast 357 411 19,000 -2,040 Descending Memphis Center
01:17PM 35.5728 -91.0844 115° Southeast 328 377 17,200 -1,740 Descending Memphis Center
01:18PM 35.5356 -90.9822 114° Southeast 316 364 15,500 -1,800 Descending Memphis Center
01:19PM 35.5006 -90.8850 114° Southeast 316 364 13,600 -1,920 Descending Memphis Center
01:20PM 35.4636 -90.7853 114° Southeast 325 374 11,700 -1,800 Descending Memphis Center
01:21PM 35.4261 -90.6831 114° Southeast 319 367 10,100 -900 Descending Memphis Center
01:22PM 35.4203 -90.5889 94° East 293 337 10,000 -720 Descending Memphis Center
01:23PM 35.4161 -90.5125 94° East 239 275 8,700 -1,260 Descending Memphis Center
01:24PM 35.4142 -90.4461 92° East 226 260 7,500 -1,380 Descending Memphis Center
01:25PM 35.4161 -90.3697 88° East 219 252 6,000 -780 Descending Memphis Center
01:26PM 35.4183 -90.2983 88° East 213 245 6,000  Level Memphis Center
01:27PM 35.4203 -90.2244 88° East 213 245 6,000  Level Memphis Center
01:28PM 35.4244 -90.1481 86° East 218 251 6,000 -480 Level Memphis Center
01:29PM 35.4242 -90.0794 90° East 212 244 5,100 -1,020 Descending Memphis Center
01:30PM 35.3844 -90.0286 134° Southeast 191 220 4,000 -600 Descending Memphis Center
01:31PM 35.3322 -89.9956 153° Southeast 186 214 4,000  Level Memphis Center
01:32PM 35.3000 -89.9833 163° South 206 237 4,000 -120 Level KMEM
01:33PM 35.2500 -89.9833 180° South 204 235 3,900 -720 Descending KMEM
01:35PM 35.1333 -89.9833 180° South 163 188 2,000 -900 Descending KMEM
01:36PM 35.1000 -89.9833 180° South 139 160 1,300 -720 Descending KMEM
01:37PM 35.0667 -89.9833 180° South 131 151 600 -720 Descending KMEM
01:39PM 35.0424 -89.9767 152° Southeast  Level Estimated
01:46PM 35.0424 -89.9767 152° Southeast  Level Estimated
01:47PM 35.0424 -89.9767 152° Southeast  Level Estimated
01:48PM 35.0424 -89.9767 152° Southeast  Level Estimated
01:49PM 35.0424 -89.9767 152° Southeast  Level Estimated
01:50PM 35.0424 -89.9767 152° Southeast  Level Estimated
01:51PM 35.0424 -89.9767 152° Southeast  Level Estimated